Time;durP1;ratioP1;P1;durP2;ratioP2;P2;SDS_P1;SDS_P2;PMS_P1;PMS_P2;Temp;Humidity;BMP_temperature;BMP_pressure;BME280_temperature;BME280_humidity;BME280_pressure;Samples;Min_cycle;Max_cycle;Signal;HPM_P1;HPM_P2
2021/04/03 09:27:10;;;;;;;9.20;2.58;;;12.40;48.00;;;;;;5090788;28;20330;-53
2021/04/03 09:29:36;;;;;;;7.80;2.58;;;12.30;48.20;;;;;;5088950;28;20036;-53
2021/04/03 09:32:06;;;;;;;6.28;2.30;;;12.40;48.40;;;;;;5091049;28;20111;-53
2021/04/03 09:34:36;;;;;;;3.72;2.78;;;12.40;48.60;;;;;;5090945;28;20028;-53
2021/04/03 09:37:16;;;;;;;9.30;2.40;;;12.40;48.50;;;;;;5084687;28;20059;-53
2021/04/03 09:39:51;;;;;;;3.13;2.15;;;12.40;48.80;;;;;;5089909;28;20028;-53
2021/04/03 09:42:21;;;;;;;4.20;2.05;;;12.40;48.10;;;;;;5090871;28;20071;-53
2021/04/03 09:44:48;;;;;;;8.25;2.28;;;12.30;47.70;;;;;;5090423;28;20020;-53
2021/04/03 09:47:14;;;;;;;4.40;2.55;;;12.30;48.60;;;;;;5090617;28;20032;-53
2021/04/03 09:49:40;;;;;;;7.68;2.00;;;12.30;48.50;;;;;;5090037;28;20038;-53
2021/04/03 09:52:07;;;;;;;5.57;2.42;;;12.30;48.50;;;;;;5089917;28;20024;-53
2021/04/03 09:54:33;;;;;;;6.00;3.15;;;12.40;48.50;;;;;;5090342;28;20057;-53
2021/04/03 09:57:01;;;;;;;4.68;2.80;;;12.30;48.10;;;;;;5090123;28;20021;-53
2021/04/03 09:59:26;;;;;;;3.67;2.50;;;12.30;47.60;;;;;;5089923;28;20075;-53
2021/04/03 10:01:52;;;;;;;5.35;2.47;;;12.30;48.10;;;;;;5087908;28;20433;-53
2021/04/03 10:04:18;;;;;;;5.18;2.50;;;12.30;47.90;;;;;;5089719;28;20101;-52
2021/04/03 10:06:43;;;;;;;3.25;1.80;;;12.30;47.10;;;;;;5089563;28;20515;-53
2021/04/03 10:09:09;;;;;;;2.58;1.90;;;12.30;47.60;;;;;;5089511;28;20031;-53
2021/04/03 10:11:35;;;;;;;4.20;2.17;;;12.30;47.10;;;;;;5090197;28;20025;-53
2021/04/03 10:14:00;;;;;;;2.35;1.67;;;12.30;46.90;;;;;;5090042;28;20021;-53
2021/04/03 10:16:27;;;;;;;4.75;2.13;;;12.30;47.10;;;;;;5089959;28;20032;-53
2021/04/03 10:18:53;;;;;;;4.95;2.53;;;12.30;46.10;;;;;;5089774;28;20025;-53
2021/04/03 10:21:18;;;;;;;4.10;2.15;;;12.20;46.40;;;;;;5089334;28;20031;-53
2021/04/03 10:23:45;;;;;;;2.60;1.70;;;12.10;45.40;;;;;;5090026;28;20048;-53
2021/04/03 10:26:10;;;;;;;2.85;2.20;;;12.10;45.90;;;;;;5089498;28;20040;-53
2021/04/03 10:28:36;;;;;;;3.90;2.38;;;12.10;45.60;;;;;;5089514;28;20047;-53
2021/04/03 10:31:01;;;;;;;4.13;2.05;;;12.20;46.00;;;;;;5089394;28;20101;-53
2021/04/03 10:33:27;;;;;;;3.75;2.33;;;12.20;46.10;;;;;;5089649;28;20016;-53
2021/04/03 10:35:53;;;;;;;4.13;2.15;;;12.20;45.90;;;;;;5089122;28;20025;-53
2021/04/03 10:38:18;;;;;;;4.15;2.10;;;12.10;45.80;;;;;;5076333;28;20115;-53
2021/04/03 10:40:44;;;;;;;2.33;1.80;;;12.20;46.40;;;;;;5075630;28;20020;-53
2021/04/03 10:43:09;;;;;;;3.08;1.80;;;12.20;46.50;;;;;;5076038;28;20020;-53
2021/04/03 10:45:35;;;;;;;3.33;1.80;;;12.30;46.50;;;;;;5076016;28;20032;-53
2021/04/03 10:48:01;;;;;;;5.95;2.25;;;12.30;46.50;;;;;;5075693;28;20023;-53
2021/04/03 10:50:26;;;;;;;5.80;1.63;;;12.20;46.30;;;;;;5056059;28;20120;-53
2021/04/03 10:52:52;;;;;;;1.95;1.63;;;12.10;46.00;;;;;;5057748;28;20025;-53
2021/04/03 10:55:18;;;;;;;5.93;2.30;;;12.20;46.50;;;;;;5068539;28;20025;-53
2021/04/03 10:57:43;;;;;;;5.38;2.00;;;12.20;46.60;;;;;;5068715;28;20030;-53
2021/04/03 11:00:09;;;;;;;6.10;2.75;;;12.20;46.40;;;;;;5072241;28;20024;-53
2021/04/03 11:02:35;;;;;;;4.90;2.30;;;12.10;45.90;;;;;;5071376;28;20464;-53
2021/04/03 11:05:02;;;;;;;5.43;1.95;;;12.20;46.50;;;;;;5074252;28;20119;-53
2021/04/03 11:07:27;;;;;;;2.90;1.90;;;12.10;46.10;;;;;;5075659;28;20147;-52
2021/04/03 11:09:53;;;;;;;6.07;2.15;;;12.20;46.50;;;;;;5075040;28;20052;-53
2021/04/03 11:12:19;;;;;;;11.68;6.03;;;12.20;46.30;;;;;;5075373;28;20033;-53
2021/04/03 11:14:45;;;;;;;7.47;2.50;;;12.20;46.60;;;;;;5075178;28;20033;-53
2021/04/03 11:17:11;;;;;;;4.30;1.88;;;12.10;46.30;;;;;;5069933;28;20102;-53
2021/04/03 11:19:37;;;;;;;4.63;2.58;;;12.20;46.60;;;;;;5069090;28;20441;-53
2021/04/03 11:22:03;;;;;;;5.53;2.35;;;12.10;46.20;;;;;;5068620;28;20056;-53
2021/04/03 11:24:29;;;;;;;3.60;1.38;;;11.90;46.00;;;;;;5075016;28;20021;-53
2021/04/03 11:26:55;;;;;;;8.65;2.50;;;11.90;46.00;;;;;;5074746;28;20050;-53
2021/04/03 11:29:21;;;;;;;5.45;2.10;;;11.90;46.40;;;;;;5074699;28;20115;-52
2021/04/03 11:31:47;;;;;;;6.00;2.15;;;12.00;46.40;;;;;;5075386;28;20020;-53
2021/04/03 11:34:12;;;;;;;4.95;1.95;;;12.00;46.40;;;;;;5074896;28;20020;-53
2021/04/03 11:36:39;;;;;;;5.50;2.03;;;12.00;46.80;;;;;;5074533;28;20048;-52
2021/04/03 11:39:06;;;;;;;5.03;2.10;;;12.10;46.90;;;;;;5074917;28;20051;-53
2021/04/03 11:41:32;;;;;;;5.68;2.10;;;12.10;46.80;;;;;;5074869;28;20037;-52
2021/04/03 11:43:58;;;;;;;4.05;1.95;;;12.00;46.70;;;;;;5074872;28;20013;-52
2021/04/03 11:46:23;;;;;;;9.70;2.83;;;12.00;46.70;;;;;;5074395;28;20028;-53
2021/04/03 11:48:49;;;;;;;4.60;1.70;;;12.00;47.60;;;;;;5063781;28;20033;-52
2021/04/03 11:51:15;;;;;;;4.10;2.15;;;12.00;46.80;;;;;;5073453;28;20169;-52
2021/04/03 11:53:41;;;;;;;3.85;1.73;;;12.10;47.00;;;;;;5074483;28;20449;-51
2021/04/03 11:56:06;;;;;;;9.15;2.88;;;12.00;46.40;;;;;;5074294;28;20024;-50
2021/04/03 11:58:32;;;;;;;6.72;3.60;;;12.10;46.90;;;;;;5064575;28;20120;-50
2021/04/03 12:00:58;;;;;;;3.63;1.73;;;12.10;47.00;;;;;;5063462;28;20033;-50
2021/04/03 12:03:24;;;;;;;2.20;1.60;;;11.90;45.00;;;;;;5070835;28;20028;-50
2021/04/03 12:05:49;;;;;;;7.43;1.77;;;11.80;45.70;;;;;;5073423;28;20032;-50
2021/04/03 12:08:15;;;;;;;5.15;2.33;;;11.80;45.60;;;;;;5072421;28;20505;-50
2021/04/03 12:10:41;;;;;;;2.95;1.40;;;11.90;45.70;;;;;;5064150;28;20028;-50
2021/04/03 12:13:07;;;;;;;2.03;1.40;;;11.90;45.80;;;;;;5062753;28;20021;-50
2021/04/03 12:15:32;;;;;;;2.83;1.90;;;11.90;45.70;;;;;;5064254;28;20112;-50
2021/04/03 12:17:58;;;;;;;4.45;2.25;;;12.00;46.00;;;;;;5063706;28;20051;-50
2021/04/03 12:20:24;;;;;;;4.68;2.22;;;12.00;45.70;;;;;;5059377;28;20032;-50
2021/04/03 12:22:50;;;;;;;1.90;1.40;;;11.90;44.90;;;;;;5056650;28;20013;-50
2021/04/03 12:25:16;;;;;;;4.97;2.33;;;11.90;45.10;;;;;;5053951;28;20426;-50
2021/04/03 12:27:42;;;;;;;6.93;3.33;;;11.80;45.00;;;;;;5053829;28;20441;-50
2021/04/03 12:30:08;;;;;;;3.50;2.00;;;11.90;45.60;;;;;;5053632;28;20227;-50
2021/04/03 12:32:34;;;;;;;4.65;2.67;;;11.80;44.40;;;;;;5059810;28;20025;-51
2021/04/03 12:35:00;;;;;;;2.58;1.70;;;11.80;45.10;;;;;;5055255;28;20036;-51
2021/04/03 12:37:26;;;;;;;5.95;1.63;;;11.70;44.10;;;;;;5053585;28;20449;-51
2021/04/03 12:39:51;;;;;;;3.15;1.60;;;11.70;44.60;;;;;;5070677;28;20400;-51
2021/04/03 12:42:17;;;;;;;4.82;1.52;;;11.70;44.90;;;;;;5073305;28;20029;-51
2021/04/03 12:44:43;;;;;;;3.95;1.67;;;11.80;44.70;;;;;;5073268;28;20463;-51
2021/04/03 12:47:08;;;;;;;9.70;2.45;;;11.80;44.30;;;;;;5073055;28;20077;-51
2021/04/03 12:49:34;;;;;;;6.07;2.25;;;11.80;44.60;;;;;;5072704;28;20262;-51
2021/04/03 12:52:01;;;;;;;8.35;2.72;;;11.90;44.90;;;;;;5055791;28;20021;-51
2021/04/03 12:54:27;;;;;;;4.57;2.17;;;11.90;44.60;;;;;;5053718;28;20353;-51
2021/04/03 12:56:52;;;;;;;3.10;1.33;;;11.90;44.80;;;;;;5053181;28;20033;-51
2021/04/03 12:59:18;;;;;;;3.47;1.92;;;11.90;44.60;;;;;;5052672;28;20044;-51
2021/04/03 13:01:44;;;;;;;3.22;1.77;;;11.90;44.60;;;;;;5052644;28;20033;-52
2021/04/03 13:04:10;;;;;;;6.50;1.73;;;11.80;44.30;;;;;;5083783;28;20360;-50
2021/04/03 13:06:35;;;;;;;4.13;1.45;;;11.90;44.40;;;;;;5093320;28;20042;-51
2021/04/03 13:09:02;;;;;;;8.93;1.70;;;11.90;44.40;;;;;;5092934;28;20050;-51
2021/04/03 13:11:30;;;;;;;1.83;1.35;;;11.90;44.80;;;;;;5065146;28;20109;-50
2021/04/03 13:13:55;;;;;;;7.30;2.10;;;12.00;44.80;;;;;;5072628;28;20150;-51
2021/04/03 13:16:21;;;;;;;3.22;1.67;;;11.90;44.50;;;;;;5069327;28;20070;-51
2021/04/03 13:18:47;;;;;;;2.15;1.25;;;12.00;44.60;;;;;;5072534;28;20031;-51
2021/04/03 13:21:13;;;;;;;4.00;1.75;;;11.90;44.10;;;;;;5057143;28;20036;-51
2021/04/03 13:23:39;;;;;;;12.00;2.10;;;11.90;43.80;;;;;;5052755;28;20100;-51
2021/04/03 13:26:04;;;;;;;7.00;1.60;;;11.80;44.40;;;;;;5052607;28;20037;-51
2021/04/03 13:28:30;;;;;;;3.22;1.90;;;11.80;44.60;;;;;;5069576;28;20358;-51
2021/04/03 13:30:55;;;;;;;5.20;2.03;;;11.80;44.60;;;;;;5071757;28;20060;-51
2021/04/03 13:33:21;;;;;;;3.97;1.75;;;11.80;44.80;;;;;;5067324;28;20098;-50
2021/04/03 13:35:46;;;;;;;3.35;1.70;;;11.70;44.30;;;;;;5072935;28;20063;-51
2021/04/03 13:38:12;;;;;;;6.07;2.10;;;11.80;45.10;;;;;;5072665;28;20503;-50
2021/04/03 13:40:38;;;;;;;6.28;1.67;;;11.70;44.20;;;;;;5072596;28;20020;-51
2021/04/03 13:43:04;;;;;;;7.00;2.35;;;11.70;45.00;;;;;;5068464;28;20013;-51
2021/04/03 13:45:30;;;;;;;6.53;2.17;;;11.80;45.10;;;;;;5061844;28;20442;-50
2021/04/03 13:47:55;;;;;;;6.63;2.30;;;11.90;45.20;;;;;;5061367;28;20103;-51
2021/04/03 13:50:21;;;;;;;3.95;1.90;;;11.90;45.00;;;;;;5060648;28;20362;-51
2021/04/03 13:52:47;;;;;;;2.90;1.80;;;11.90;45.20;;;;;;5062683;28;20024;-51
2021/04/03 13:55:13;;;;;;;6.47;1.95;;;11.90;44.80;;;;;;5062744;28;20056;-51
2021/04/03 13:57:39;;;;;;;4.85;1.70;;;11.90;45.20;;;;;;5060931;28;20362;-51
2021/04/03 14:00:06;;;;;;;10.57;2.08;;;11.90;45.20;;;;;;5062483;28;20096;-51
2021/04/03 14:02:32;;;;;;;3.88;2.28;;;11.90;45.40;;;;;;5062362;28;20029;-51
2021/04/03 14:04:57;;;;;;;5.63;2.25;;;12.00;45.70;;;;;;5061190;28;20516;-51
2021/04/03 14:07:23;;;;;;;4.30;1.92;;;11.90;45.50;;;;;;5061014;28;20024;-51
2021/04/03 14:09:48;;;;;;;5.22;1.98;;;12.00;45.50;;;;;;5062466;28;20414;-51
2021/04/03 14:12:14;;;;;;;1.67;1.45;;;11.90;45.40;;;;;;5063620;28;20504;-51
2021/04/03 14:14:40;;;;;;;3.88;2.20;;;12.00;45.40;;;;;;5064080;28;20047;-51
2021/04/03 14:17:06;;;;;;;3.33;1.83;;;11.90;44.90;;;;;;5066585;28;20025;-50
2021/04/03 14:19:31;;;;;;;7.60;1.63;;;11.90;45.00;;;;;;5065547;28;20449;-51
2021/04/03 14:21:57;;;;;;;5.70;1.85;;;11.90;44.60;;;;;;5064984;28;20342;-51
2021/04/03 14:24:22;;;;;;;8.95;2.28;;;11.90;44.20;;;;;;5066425;28;20404;-51
2021/04/03 14:26:48;;;;;;;5.25;2.05;;;11.90;44.70;;;;;;5065452;28;20052;-50
2021/04/03 14:29:14;;;;;;;3.47;1.80;;;11.90;45.10;;;;;;5063247;28;20020;-51
2021/04/03 14:31:42;;;;;;;3.92;1.73;;;11.90;45.20;;;;;;5066294;28;20442;-51
2021/04/03 14:34:09;;;;;;;4.07;2.05;;;11.90;45.10;;;;;;5064722;28;20017;-51
2021/04/03 14:36:35;;;;;;;3.97;1.42;;;11.90;45.00;;;;;;5065099;28;20353;-50
2021/04/03 14:39:00;;;;;;;4.78;1.80;;;11.90;45.00;;;;;;5066711;28;20047;-50
2021/04/03 14:41:26;;;;;;;3.65;1.67;;;11.90;45.20;;;;;;5068008;28;20465;-50
2021/04/03 14:43:52;;;;;;;5.07;2.30;;;11.90;44.90;;;;;;5074936;28;20043;-50
2021/04/03 14:46:18;;;;;;;7.72;1.95;;;11.90;45.10;;;;;;5067463;28;20063;-51
2021/04/03 14:48:43;;;;;;;8.73;1.92;;;11.90;45.10;;;;;;5068415;28;20022;-50
2021/04/03 14:51:09;;;;;;;5.78;1.60;;;11.90;45.00;;;;;;5073988;28;20456;-50
2021/04/03 14:53:34;;;;;;;3.28;1.90;;;11.90;44.90;;;;;;5075377;28;20032;-50
2021/04/03 14:56:00;;;;;;;5.70;2.38;;;11.90;44.70;;;;;;5075493;28;20032;-50
2021/04/03 14:58:26;;;;;;;4.25;1.52;;;11.90;44.70;;;;;;5074708;28;20476;-50
2021/04/03 15:00:51;;;;;;;7.30;2.85;;;11.90;45.10;;;;;;5075369;28;20034;-50
2021/04/03 15:03:17;;;;;;;4.65;1.90;;;11.90;44.80;;;;;;5067804;28;20103;-50
2021/04/03 15:05:42;;;;;;;5.57;1.58;;;11.90;44.90;;;;;;5073088;28;20058;-50
2021/04/03 15:08:08;;;;;;;5.07;1.85;;;11.80;44.40;;;;;;5075168;28;20036;-50
2021/04/03 15:10:37;;;;;;;6.10;1.70;;;11.80;44.40;;;;;;5075026;28;20453;-50
2021/04/03 15:13:02;;;;;;;3.25;1.60;;;11.80;44.40;;;;;;5074810;28;20448;-50
2021/04/03 15:15:28;;;;;;;4.10;1.50;;;11.90;44.70;;;;;;5074494;28;20043;-50
2021/04/03 15:17:54;;;;;;;6.15;2.05;;;11.90;44.70;;;;;;5074603;28;20047;-50
2021/04/03 15:20:19;;;;;;;3.72;1.50;;;11.80;43.70;;;;;;5074771;28;20378;-50
2021/04/03 15:22:45;;;;;;;7.32;1.48;;;11.70;43.70;;;;;;5074954;28;20028;-50
2021/04/03 15:25:11;;;;;;;5.38;1.58;;;11.70;44.20;;;;;;5074630;28;20033;-50
2021/04/03 15:27:37;;;;;;;3.38;1.52;;;11.70;43.60;;;;;;5074719;28;20032;-50
2021/04/03 15:30:03;;;;;;;1.75;1.50;;;11.70;44.40;;;;;;5074246;28;20414;-50
2021/04/03 15:32:29;;;;;;;6.40;1.80;;;11.80;44.40;;;;;;5074870;28;20032;-50
2021/04/03 15:34:55;;;;;;;13.52;1.50;;;11.70;44.20;;;;;;5068634;28;20033;-51
2021/04/03 15:37:20;;;;;;;4.25;1.35;;;11.80;44.70;;;;;;5068590;28;20021;-51
2021/04/03 15:39:46;;;;;;;7.57;1.98;;;11.80;44.50;;;;;;5065492;28;20434;-51
2021/04/03 15:42:12;;;;;;;4.18;1.70;;;11.80;44.70;;;;;;5068041;28;20032;-51
2021/04/03 15:44:38;;;;;;;4.05;2.15;;;11.80;45.00;;;;;;5065217;28;20042;-51
2021/04/03 15:47:03;;;;;;;5.20;1.55;;;11.80;44.90;;;;;;5071290;28;20032;-51
2021/04/03 15:49:29;;;;;;;3.75;1.50;;;11.80;45.00;;;;;;5067460;28;20032;-51
2021/04/03 15:51:55;;;;;;;4.32;1.90;;;11.80;45.80;;;;;;5074432;28;20032;-51
2021/04/03 15:54:20;;;;;;;5.05;2.00;;;11.80;45.20;;;;;;5074087;28;20454;-51
2021/04/03 15:56:46;;;;;;;5.35;2.25;;;11.80;45.30;;;;;;5074027;28;20028;-51
2021/04/03 15:59:11;;;;;;;3.78;1.65;;;11.80;45.30;;;;;;5074042;28;20120;-51
2021/04/03 16:01:37;;;;;;;2.90;1.50;;;11.80;45.00;;;;;;5074336;28;20512;-51
2021/04/03 16:04:03;;;;;;;3.28;1.60;;;11.80;45.20;;;;;;5073714;28;20102;-51
2021/04/03 16:06:28;;;;;;;6.63;2.05;;;11.80;45.20;;;;;;5073900;28;20028;-51
2021/04/03 16:08:54;;;;;;;3.22;1.73;;;11.80;45.30;;;;;;5073859;28;20434;-51
2021/04/03 16:11:20;;;;;;;3.22;1.40;;;11.70;45.30;;;;;;5073200;28;20033;-51
2021/04/03 16:13:45;;;;;;;3.33;1.27;;;11.80;45.60;;;;;;5074147;28;20033;-51
2021/04/03 16:16:11;;;;;;;6.18;1.95;;;11.70;45.30;;;;;;5073627;28;20027;-51
2021/04/03 16:18:36;;;;;;;4.53;1.80;;;11.70;45.40;;;;;;5073776;28;20070;-51
2021/04/03 16:21:02;;;;;;;1.85;1.20;;;11.70;45.40;;;;;;5073805;28;20438;-51
2021/04/03 16:23:28;;;;;;;2.20;1.50;;;11.70;45.50;;;;;;5073670;28;20124;-51
2021/04/03 16:25:54;;;;;;;2.13;1.30;;;11.70;45.60;;;;;;5071840;28;20036;-51
2021/04/03 16:28:23;;;;;;;4.20;1.90;;;11.70;45.90;;;;;;5073551;28;20090;-51
2021/04/03 16:30:49;;;;;;;1.73;1.35;;;11.70;46.10;;;;;;5073865;28;20114;-51
2021/04/03 16:33:15;;;;;;;4.43;1.38;;;11.70;46.10;;;;;;5073638;28;20035;-51
2021/04/03 16:35:40;;;;;;;2.03;1.45;;;11.70;46.00;;;;;;5069215;28;20127;-51
2021/04/03 16:38:07;;;;;;;3.97;1.48;;;11.70;46.20;;;;;;5073500;28;20059;-51
2021/04/03 16:40:33;;;;;;;3.28;1.30;;;11.70;46.40;;;;;;5065924;28;20048;-51
2021/04/03 16:42:58;;;;;;;2.47;1.55;;;11.70;46.70;;;;;;5060939;28;20025;-51
2021/04/03 16:45:24;;;;;;;2.40;1.33;;;11.60;46.50;;;;;;5062488;28;20047;-51
2021/04/03 16:47:52;;;;;;;4.43;1.67;;;11.60;46.50;;;;;;5055911;28;20021;-51
2021/04/03 16:50:18;;;;;;;3.55;1.83;;;11.60;46.40;;;;;;5052816;28;20028;-51
2021/04/03 16:52:43;;;;;;;3.67;1.35;;;11.60;46.60;;;;;;5053736;28;20028;-51
2021/04/03 16:55:09;;;;;;;3.10;2.00;;;11.60;46.40;;;;;;5065633;28;20405;-51
2021/04/03 16:57:35;;;;;;;5.07;1.52;;;11.60;46.60;;;;;;5070749;28;20021;-51
2021/04/03 17:00:00;;;;;;;9.07;3.22;;;11.60;46.70;;;;;;5063362;28;20028;-51
2021/04/03 17:02:26;;;;;;;6.35;1.90;;;11.60;47.50;;;;;;5067289;28;20047;-51
2021/04/03 17:04:52;;;;;;;8.80;2.28;;;11.60;48.50;;;;;;5065742;28;20045;-51
2021/04/03 17:07:17;;;;;;;3.25;1.85;;;11.60;48.10;;;;;;5071003;28;20020;-51
2021/04/03 17:09:43;;;;;;;5.65;1.98;;;11.60;48.40;;;;;;5072571;28;20357;-51
2021/04/03 17:12:09;;;;;;;2.40;1.60;;;11.60;48.60;;;;;;5072720;28;20032;-51
2021/04/03 17:14:36;;;;;;;2.45;1.30;;;11.60;48.80;;;;;;5073150;28;20031;-51
2021/04/03 17:17:03;;;;;;;8.45;1.85;;;11.60;49.00;;;;;;5072947;28;20108;-51
2021/04/03 17:19:29;;;;;;;7.32;2.38;;;11.60;49.10;;;;;;5068705;28;20056;-51
2021/04/03 17:21:55;;;;;;;9.30;3.08;;;11.60;49.30;;;;;;5064183;28;20585;-51
2021/04/03 17:24:21;;;;;;;9.20;3.55;;;11.60;49.40;;;;;;5064281;28;20506;-51
2021/04/03 17:26:46;;;;;;;9.13;3.55;;;11.60;49.50;;;;;;5066843;28;20033;-51
2021/04/03 17:29:12;;;;;;;14.40;3.83;;;11.60;49.60;;;;;;5068920;28;20032;-51
2021/04/03 17:31:38;;;;;;;5.55;2.95;;;11.60;49.70;;;;;;5072573;28;20058;-51
2021/04/03 17:34:04;;;;;;;13.77;2.80;;;11.60;49.80;;;;;;5061327;28;20017;-51
2021/04/03 17:36:30;;;;;;;6.63;3.22;;;11.60;50.00;;;;;;5061067;28;20029;-51
2021/04/03 17:38:56;;;;;;;7.47;2.90;;;11.60;50.00;;;;;;5071226;28;20028;-51
2021/04/03 17:41:21;;;;;;;12.73;3.28;;;11.60;50.20;;;;;;5072541;28;20028;-51
2021/04/03 17:43:49;;;;;;;10.15;2.80;;;11.60;50.20;;;;;;5067594;28;20492;-52
2021/04/03 17:46:14;;;;;;;8.43;2.35;;;11.60;50.30;;;;;;5072204;28;20423;-51
2021/04/03 17:48:40;;;;;;;14.23;4.53;;;11.60;50.40;;;;;;5068243;28;20021;-51
2021/04/03 17:51:06;;;;;;;10.40;3.67;;;11.60;50.50;;;;;;5070699;28;20123;-51
2021/04/03 17:53:31;;;;;;;7.40;3.47;;;11.60;50.60;;;;;;5069394;28;20025;-51
2021/04/03 17:55:59;;;;;;;9.00;3.28;;;11.60;50.70;;;;;;5064174;28;20087;-51
2021/04/03 17:58:26;;;;;;;8.20;3.30;;;11.60;51.20;;;;;;5062491;28;20037;-51
2021/04/03 18:00:56;;;;;;;6.63;2.95;;;11.50;51.20;;;;;;5069843;28;20528;-51
2021/04/03 18:03:25;;;;;;;12.93;2.90;;;11.60;51.30;;;;;;5066059;28;20342;-51
2021/04/03 18:05:51;;;;;;;18.33;5.63;;;11.50;51.20;;;;;;5065892;28;20458;-51
2021/04/03 18:08:16;;;;;;;14.38;5.55;;;11.50;51.20;;;;;;5066961;28;20024;-51
2021/04/03 18:10:42;;;;;;;11.07;4.25;;;11.50;51.30;;;;;;5062796;28;20094;-51
2021/04/03 18:13:08;;;;;;;8.48;3.03;;;11.50;51.30;;;;;;5068304;28;20319;-51
2021/04/03 18:15:34;;;;;;;4.10;1.95;;;11.50;51.40;;;;;;5072763;28;20032;-51
2021/04/03 18:18:00;;;;;;;4.50;2.28;;;11.50;52.00;;;;;;5070973;28;20074;-52
2021/04/03 18:20:26;;;;;;;9.80;2.70;;;11.50;51.50;;;;;;5066340;28;20029;-51
2021/04/03 18:22:53;;;;;;;7.10;2.05;;;11.50;51.60;;;;;;5064735;28;20025;-51
2021/04/03 18:25:19;;;;;;;3.85;1.75;;;11.50;51.70;;;;;;5066879;28;20032;-52
2021/04/03 18:27:45;;;;;;;2.72;1.77;;;11.50;51.80;;;;;;5069050;28;20338;-51
2021/04/03 18:30:14;;;;;;;3.40;1.80;;;11.50;51.80;;;;;;5080831;28;20021;-51
2021/04/03 18:32:41;;;;;;;3.42;1.80;;;11.50;51.90;;;;;;5085083;28;20360;-51
2021/04/03 18:35:11;;;;;;;4.13;2.10;;;11.50;52.00;;;;;;5080647;28;20058;-51
2021/04/03 18:37:38;;;;;;;4.97;1.77;;;11.50;52.10;;;;;;5074015;28;20029;-51
2021/04/03 18:40:06;;;;;;;4.75;2.65;;;11.50;52.20;;;;;;5074910;28;20062;-51
2021/04/03 18:42:32;;;;;;;10.20;2.50;;;11.50;52.30;;;;;;5072390;28;20457;-51
2021/04/03 18:44:59;;;;;;;4.80;2.78;;;11.40;52.30;;;;;;5070863;28;20040;-51
2021/04/03 18:47:25;;;;;;;2.42;1.70;;;11.40;52.40;;;;;;5066459;28;20025;-51
2021/04/03 18:49:50;;;;;;;6.38;2.60;;;11.40;52.50;;;;;;5075194;28;20349;-51
2021/04/03 18:52:16;;;;;;;4.43;2.10;;;11.40;52.50;;;;;;5072919;28;20071;-51
2021/04/03 18:54:42;;;;;;;5.00;2.08;;;11.40;52.60;;;;;;5075706;28;20403;-51
2021/04/03 18:57:08;;;;;;;5.43;2.70;;;11.40;52.70;;;;;;5075340;28;20408;-52
2021/04/03 18:59:34;;;;;;;3.95;2.17;;;11.40;52.80;;;;;;5074459;28;20046;-52
2021/04/03 19:02:00;;;;;;;8.90;2.70;;;11.40;52.90;;;;;;5075849;28;20024;-51
2021/04/03 19:04:26;;;;;;;7.72;2.72;;;11.40;53.00;;;;;;5060702;28;20090;-52
2021/04/03 19:06:53;;;;;;;9.20;2.70;;;11.40;53.10;;;;;;5058524;28;20056;-51
2021/04/03 19:09:18;;;;;;;12.38;3.33;;;11.40;53.20;;;;;;5070885;28;20017;-52
2021/04/03 19:11:44;;;;;;;12.38;2.72;;;11.40;53.20;;;;;;5074152;28;20402;-52
2021/04/03 19:14:10;;;;;;;11.85;2.72;;;11.40;53.30;;;;;;5064707;28;20462;-52
2021/04/03 19:16:36;;;;;;;5.28;2.22;;;11.40;53.40;;;;;;5064079;28;20029;-51
2021/04/03 19:19:01;;;;;;;3.60;2.05;;;11.40;53.40;;;;;;5065411;28;20020;-52
2021/04/03 19:21:27;;;;;;;8.23;2.05;;;11.40;53.50;;;;;;5062266;28;20029;-51
2021/04/03 19:23:53;;;;;;;4.07;2.58;;;11.40;53.60;;;;;;5055070;28;20044;-52
2021/04/03 19:26:19;;;;;;;8.57;2.10;;;11.40;53.70;;;;;;5055078;28;20421;-52
2021/04/03 19:28:45;;;;;;;3.90;1.80;;;11.40;53.70;;;;;;5070551;28;20037;-52
2021/04/03 19:31:11;;;;;;;5.18;2.00;;;11.40;53.80;;;;;;5067206;28;20457;-52
2021/04/03 19:33:36;;;;;;;10.27;1.90;;;11.40;53.90;;;;;;5054800;28;20473;-52
2021/04/03 19:36:02;;;;;;;6.75;1.77;;;11.30;53.90;;;;;;5054910;28;20036;-52
2021/04/03 19:38:28;;;;;;;3.42;2.00;;;11.40;54.00;;;;;;5054506;28;20029;-51
2021/04/03 19:40:53;;;;;;;4.88;2.50;;;11.30;54.00;;;;;;5054880;28;20438;-52
2021/04/03 19:43:21;;;;;;;18.30;3.30;;;11.30;54.10;;;;;;5054546;28;20027;-51
2021/04/03 19:45:47;;;;;;;9.75;3.00;;;11.30;54.20;;;;;;5054888;28;20033;-52
2021/04/03 19:48:13;;;;;;;19.27;3.15;;;11.30;54.20;;;;;;5054777;28;20035;-52
2021/04/03 19:50:38;;;;;;;9.00;3.55;;;11.30;54.80;;;;;;5054540;28;20358;-52
2021/04/03 19:53:04;;;;;;;9.38;2.85;;;11.30;54.30;;;;;;5059452;28;20473;-52
2021/04/03 19:55:30;;;;;;;7.78;3.65;;;11.30;54.40;;;;;;5074460;28;20017;-52
2021/04/03 19:57:55;;;;;;;8.10;2.38;;;11.30;54.40;;;;;;5073857;28;20517;-52
2021/04/03 20:00:22;;;;;;;3.67;1.90;;;11.30;54.50;;;;;;5062768;28;20465;-51
2021/04/03 20:02:47;;;;;;;3.17;1.65;;;11.30;54.60;;;;;;5063080;28;20430;-52
2021/04/03 20:05:14;;;;;;;5.45;1.85;;;11.30;54.70;;;;;;5065007;28;20036;-52
2021/04/03 20:07:39;;;;;;;3.50;1.60;;;11.30;54.70;;;;;;5063028;28;20348;-52
2021/04/03 20:10:07;;;;;;;6.00;2.28;;;11.30;54.80;;;;;;5063507;28;20032;-52
2021/04/03 20:12:32;;;;;;;13.05;2.25;;;11.20;54.80;;;;;;5063326;28;20017;-52
2021/04/03 20:14:59;;;;;;;4.90;2.17;;;11.20;54.80;;;;;;5063240;28;20029;-52
2021/04/03 20:17:25;;;;;;;3.25;1.48;;;11.20;54.90;;;;;;5064958;28;20365;-52
2021/04/03 20:19:50;;;;;;;4.35;2.05;;;11.20;54.90;;;;;;5062982;28;20438;-52
2021/04/03 20:22:16;;;;;;;4.70;2.10;;;11.20;55.00;;;;;;5063405;28;20457;-52
2021/04/03 20:24:42;;;;;;;4.18;2.28;;;11.20;55.60;;;;;;5064723;28;20055;-52
2021/04/03 20:27:08;;;;;;;13.18;2.60;;;11.20;55.10;;;;;;5062465;28;20041;-52
2021/04/03 20:29:33;;;;;;;8.13;3.17;;;11.20;55.20;;;;;;5063241;28;20494;-52
2021/04/03 20:31:59;;;;;;;14.00;3.30;;;11.20;55.20;;;;;;5064417;28;20381;-52
2021/04/03 20:34:24;;;;;;;7.43;2.95;;;11.20;55.30;;;;;;5062295;28;20108;-52
2021/04/03 20:36:50;;;;;;;11.05;2.17;;;11.20;55.30;;;;;;5063739;28;20354;-52
2021/04/03 20:39:16;;;;;;;8.55;1.90;;;11.20;55.40;;;;;;5063277;28;20025;-52
2021/04/03 20:41:41;;;;;;;5.15;1.95;;;11.20;55.50;;;;;;5061862;28;20354;-52
2021/04/03 20:44:07;;;;;;;4.32;1.75;;;11.10;55.50;;;;;;5064091;28;20420;-52
2021/04/03 20:46:33;;;;;;;8.27;1.88;;;11.10;55.50;;;;;;5062972;28;20039;-52
2021/04/03 20:48:58;;;;;;;4.30;1.98;;;11.10;55.60;;;;;;5062117;28;20024;-52
2021/04/03 20:51:24;;;;;;;4.72;2.05;;;11.10;55.70;;;;;;5064107;28;20025;-52
2021/04/03 20:53:49;;;;;;;6.63;2.67;;;11.10;55.70;;;;;;5062438;28;20028;-52
2021/04/03 20:56:15;;;;;;;3.85;2.15;;;11.10;55.70;;;;;;5062659;28;20016;-52
2021/04/03 20:58:40;;;;;;;9.48;2.85;;;11.10;55.90;;;;;;5063730;28;20180;-52
2021/04/03 21:01:06;;;;;;;6.03;2.80;;;11.00;55.80;;;;;;5062015;28;20017;-52
2021/04/03 21:03:32;;;;;;;8.00;2.95;;;11.10;56.00;;;;;;5063460;28;20341;-52
2021/04/03 21:05:57;;;;;;;4.20;2.38;;;11.00;56.00;;;;;;5063430;28;20044;-52
2021/04/03 21:08:23;;;;;;;6.82;3.35;;;11.00;56.10;;;;;;5061472;28;20094;-52
2021/04/03 21:10:49;;;;;;;4.78;2.63;;;11.00;56.10;;;;;;5063252;28;20448;-52
2021/04/03 21:13:15;;;;;;;9.32;2.20;;;11.00;56.10;;;;;;5063165;28;20023;-52
2021/04/03 21:15:40;;;;;;;4.20;2.40;;;11.00;56.20;;;;;;5061758;28;20392;-52
2021/04/03 21:18:07;;;;;;;7.85;2.83;;;11.00;56.20;;;;;;5063756;28;20056;-52
2021/04/03 21:20:33;;;;;;;6.75;3.05;;;11.00;56.30;;;;;;5061995;28;20351;-52
2021/04/03 21:22:59;;;;;;;5.57;3.00;;;11.00;56.40;;;;;;5061960;28;20029;-52
2021/04/03 21:25:24;;;;;;;6.07;2.60;;;11.00;56.40;;;;;;5062964;28;20042;-52
2021/04/03 21:27:50;;;;;;;11.52;3.40;;;11.00;56.50;;;;;;5062435;28;20025;-52
2021/04/03 21:30:16;;;;;;;4.07;2.83;;;10.90;56.50;;;;;;5056902;28;20056;-52
2021/04/03 21:32:42;;;;;;;6.43;2.80;;;10.90;56.50;;;;;;5059188;28;20032;-52
2021/04/03 21:35:08;;;;;;;7.38;2.70;;;10.90;56.60;;;;;;5062490;28;20024;-52
2021/04/03 21:37:34;;;;;;;5.82;2.80;;;10.90;56.60;;;;;;5063455;28;20098;-52
2021/04/03 21:40:00;;;;;;;7.05;2.78;;;10.90;56.70;;;;;;5060867;28;20430;-52
2021/04/03 21:42:26;;;;;;;7.97;2.90;;;10.90;56.80;;;;;;5062774;28;20339;-52
2021/04/03 21:44:52;;;;;;;15.52;2.88;;;10.90;56.80;;;;;;5060774;28;20055;-52
2021/04/03 21:47:17;;;;;;;4.28;2.65;;;10.90;56.90;;;;;;5063404;28;20040;-52
2021/04/03 21:49:43;;;;;;;5.97;2.75;;;10.90;56.90;;;;;;5060793;28;20108;-52
2021/04/03 21:52:08;;;;;;;4.22;2.38;;;10.90;57.00;;;;;;5062151;28;20075;-52
2021/04/03 21:54:34;;;;;;;4.40;2.53;;;10.80;56.90;;;;;;5061976;28;20032;-52
2021/04/03 21:56:59;;;;;;;7.07;3.45;;;10.80;57.00;;;;;;5063597;28;20028;-52
2021/04/03 21:59:25;;;;;;;9.32;3.13;;;10.80;57.00;;;;;;5061625;28;20021;-52
2021/04/03 22:01:51;;;;;;;11.57;2.90;;;10.80;57.10;;;;;;5060993;28;20020;-52
2021/04/03 22:04:16;;;;;;;9.57;2.92;;;10.80;57.10;;;;;;5063325;28;20405;-52